Accueil
METAR-TAF:

METAR-TAF

Aéroports :

Aéroport de Vigo-Peinador

Vigo, Espagne

latitude: 42-13N, longitude: 008-38W, altitude: 264 m

Observation

Le bulletin a été fait il y a 17 minutes, à 14:30 UTC
Vent 2 kt de direction variable
Température 16°C
Humidité 68%
Pression 1023 hPa
Visibilité 10 km ou plus
pas de nuages en-dessous de 1500 mètres et pas de cumulonimbus.

METAR: LEVX 011430Z VRB02KT CAVOK 16/10 Q1023 NOSIG

Heure: 15:47 (14:47 UTC)

Prévision

Le bulletin a été fait il y a 3 heures et 47 minutes, à 11:00 UTC
Prévision valable du 01 à 12 UTC au 02 à 12 UTC
Vent 4 kt de direction variable
Visibilité 10 km ou plus
pas de nuages en-dessous de 1500 mètres et pas de cumulonimbus.
Temporairement
du 02 à 00 UTC au 02 à 12 UTC
Vent 10 kt de nord

TAF: LEVX 011100Z 0112/0212 VRB04KT CAVOK TX16/0115Z TN06/0208Z TEMPO 0200/0212 01010KT

Observations et prévisions météorologiques de plus de 4000 aéroports (messages METAR et TAF).

Les stations disponibles sont représentées par des disques jaunes et rouges sur la carte.

Passer la souris dessus pour voir le nom de la station.

Cliquer dessus pour voir les observations et prévisions météorologiques.

Pour changer de carte: cliquez sur les boutons verts avec une croix noire pour zoomer, sur le bouton vert avec un tiret pour effectuer un zoom arrière, ou sur les flèches vertes pour les cartes adjacentes.


METAR-TAF: